Time;durP1;ratioP1;P1;durP2;ratioP2;P2;SDS_P1;SDS_P2;PMS_P1;PMS_P2;Temp;Humidity;BMP_temperature;BMP_pressure;BME280_temperature;BME280_humidity;BME280_pressure;Samples;Min_cycle;Max_cycle;Signal;HPM_P1;HPM_P2
2022/05/01 00:00:47;;;;;;;3.70;0.50;;;23.30;92.30;;;;;;5084910;28;20123;-75
2022/05/01 00:03:34;;;;;;;1.42;0.60;;;23.00;92.80;;;;;;5084800;28;20054;-75
2022/05/01 00:06:04;;;;;;;2.22;0.50;;;23.30;92.90;;;;;;5108319;28;20027;-75
2022/05/01 00:08:32;;;;;;;3.00;0.50;;;23.90;91.80;;;;;;5081823;28;20079;-75
2022/05/01 00:11:00;;;;;;;2.80;0.50;;;24.30;92.40;;;;;;5086370;28;20047;-74
2022/05/01 00:13:28;;;;;;;3.60;0.60;;;24.40;91.10;;;;;;5076416;28;20032;-76
2022/05/01 00:15:55;;;;;;;2.03;0.40;;;24.40;90.90;;;;;;5074706;28;20025;-77
2022/05/01 00:18:23;;;;;;;2.08;0.50;;;24.20;92.50;;;;;;5074548;28;20541;-77
2022/05/01 00:20:51;;;;;;;2.03;0.40;;;23.90;92.20;;;;;;5072069;28;20039;-76
2022/05/01 00:23:19;;;;;;;0.52;0.17;;;23.20;92.80;;;;;;5074161;28;20077;-76
2022/05/01 00:25:47;;;;;;;1.77;0.60;;;22.60;93.80;;;;;;5076723;28;20127;-76
2022/05/01 00:28:15;;;;;;;3.97;0.50;;;22.70;94.30;;;;;;5074471;28;20028;-74
2022/05/01 00:30:43;;;;;;;2.03;0.57;;;23.00;93.70;;;;;;5075565;28;20042;-76
2022/05/01 00:38:41;;;;;;;2.08;0.40;;;25.50;90.70;;;;;;5073768;28;20046;-75
2022/05/01 00:41:09;;;;;;;4.03;0.60;;;25.90;90.60;;;;;;5077741;28;20592;-75
2022/05/01 00:44:01;;;;;;;1.77;0.60;;;26.60;90.40;;;;;;5074619;28;20032;-75
2022/05/01 00:46:28;;;;;;;2.65;0.50;;;27.40;88.60;;;;;;5072430;28;20028;-74
2022/05/01 00:48:56;;;;;;;4.03;0.70;;;27.80;88.40;;;;;;5073500;28;20084;-76
2022/05/01 00:51:29;;;;;;;2.83;0.63;;;28.00;85.70;;;;;;5091458;28;20048;-76
2022/05/01 00:53:57;;;;;;;1.58;0.40;;;27.70;84.50;;;;;;5071723;28;20664;-74
2022/05/01 00:56:25;;;;;;;1.92;0.40;;;27.10;86.20;;;;;;5070541;28;20138;-75
2022/05/01 00:58:53;;;;;;;1.25;0.45;;;27.10;87.70;;;;;;5073292;28;20035;-74
2022/05/01 01:01:20;;;;;;;2.53;0.73;;;26.50;87.00;;;;;;5073158;28;20028;-76
2022/05/01 01:03:48;;;;;;;1.30;0.60;;;25.50;88.10;;;;;;5073927;28;20029;-76
2022/05/01 01:06:16;;;;;;;1.80;0.60;;;24.80;90.00;;;;;;5071276;28;20120;-77
2022/05/01 01:08:44;;;;;;;1.92;0.50;;;25.40;90.60;;;;;;5071683;28;20028;-76
2022/05/01 01:11:11;;;;;;;1.48;0.45;;;26.50;88.60;;;;;;5074704;28;20028;-76
2022/05/01 01:13:38;;;;;;;2.00;0.50;;;27.00;87.00;;;;;;5093075;28;20386;-77
2022/05/01 01:16:15;;;;;;;1.02;0.73;;;26.90;85.90;;;;;;5073487;28;20039;-76
2022/05/01 01:18:42;;;;;;;3.22;0.50;;;26.80;86.10;;;;;;5072373;28;20024;-76
2022/05/01 01:21:10;;;;;;;1.05;0.50;;;27.70;85.70;;;;;;5073099;28;20039;-76
2022/05/01 01:23:42;;;;;;;1.95;0.30;;;28.00;83.80;;;;;;5073181;28;20016;-75
2022/05/01 01:26:11;;;;;;;0.60;0.30;;;27.80;85.50;;;;;;5070797;28;20028;-76
2022/05/01 01:28:40;;;;;;;2.25;0.43;;;27.50;83.40;;;;;;5073824;28;20025;-77
2022/05/01 01:34:04;;;;;;;2.65;0.77;;;26.80;85.90;;;;;;5075403;28;20125;-76
2022/05/01 01:36:34;;;;;;;2.45;0.80;;;27.50;83.10;;;;;;5074409;28;21044;-76
2022/05/01 01:39:01;;;;;;;6.28;0.50;;;27.50;82.20;;;;;;5071397;28;20036;-77
2022/05/01 01:41:31;;;;;;;1.50;0.35;;;26.90;81.10;;;;;;5087862;28;20487;-77
2022/05/01 01:43:59;;;;;;;0.38;0.20;;;26.50;83.90;;;;;;5090369;28;20077;-77
2022/05/01 01:46:27;;;;;;;2.55;0.45;;;27.10;84.80;;;;;;5072293;28;20064;-77
2022/05/01 01:48:55;;;;;;;1.95;0.65;;;27.20;86.40;;;;;;5074253;28;20051;-77
2022/05/01 01:51:22;;;;;;;1.63;0.50;;;27.70;84.10;;;;;;5074863;28;20044;-77
2022/05/01 01:53:52;;;;;;;1.60;0.68;;;28.10;86.90;;;;;;5071112;28;20495;-77
2022/05/01 01:56:19;;;;;;;1.23;0.30;;;27.50;83.60;;;;;;5073456;28;20036;-76
2022/05/01 01:58:47;;;;;;;1.17;0.40;;;26.50;82.80;;;;;;5071074;28;20021;-76
2022/05/01 02:01:14;;;;;;;1.52;0.88;;;27.40;85.30;;;;;;5078346;28;20043;-77
2022/05/01 02:03:41;;;;;;;1.75;0.28;;;28.50;82.00;;;;;;5071873;28;20028;-77
2022/05/01 02:06:09;;;;;;;1.88;0.38;;;28.80;81.00;;;;;;5077503;28;20028;-76
2022/05/01 02:08:37;;;;;;;2.33;0.40;;;28.00;82.50;;;;;;5094906;28;20038;-76
2022/05/01 02:11:05;;;;;;;2.42;0.40;;;26.70;81.80;;;;;;5101682;28;20490;-76
2022/05/01 02:13:33;;;;;;;2.15;0.50;;;26.30;83.80;;;;;;5070857;28;20038;-78
2022/05/01 02:16:00;;;;;;;0.88;0.40;;;26.90;84.50;;;;;;5072812;28;20058;-78
2022/05/01 02:18:28;;;;;;;0.40;0.35;;;27.80;86.80;;;;;;5071388;28;20109;-77
2022/05/01 02:23:40;;;;;;;3.38;0.77;;;28.90;82.00;;;;;;5072387;28;20035;-76
2022/05/01 02:26:07;;;;;;;4.03;0.47;;;28.60;79.30;;;;;;5072932;28;20089;-76
2022/05/01 02:28:36;;;;;;;1.58;0.47;;;28.70;83.10;;;;;;5074936;28;20118;-76
2022/05/01 02:31:03;;;;;;;2.35;0.30;;;28.90;85.20;;;;;;5074757;28;20077;-77
2022/05/01 02:33:31;;;;;;;1.35;0.20;;;28.90;81.30;;;;;;5081052;28;20044;-77
2022/05/01 02:35:58;;;;;;;1.35;0.35;;;29.10;83.30;;;;;;5069898;28;20399;-78
2022/05/01 02:38:26;;;;;;;0.70;0.30;;;29.20;82.30;;;;;;5072588;28;20031;-77
2022/05/01 02:40:53;;;;;;;4.47;0.50;;;29.00;82.80;;;;;;5072330;28;20068;-77
2022/05/01 02:43:20;;;;;;;1.30;0.32;;;28.90;80.00;;;;;;5075687;28;20032;-76
2022/05/01 02:45:48;;;;;;;1.00;0.30;;;28.50;78.20;;;;;;5072324;28;20240;-78
2022/05/01 02:48:15;;;;;;;0.30;0.15;;;28.30;81.50;;;;;;5079798;28;20049;-76
2022/05/01 02:50:42;;;;;;;3.63;0.65;;;28.40;82.70;;;;;;5069967;28;20502;-76
2022/05/01 02:53:10;;;;;;;1.10;0.30;;;28.30;81.10;;;;;;5071332;28;20021;-76
2022/05/01 02:55:37;;;;;;;2.40;0.40;;;28.20;82.30;;;;;;5069957;28;20043;-75
2022/05/01 02:58:04;;;;;;;6.45;1.05;;;28.10;81.70;;;;;;5072326;28;20031;-75
2022/05/01 03:00:33;;;;;;;1.48;0.30;;;28.00;81.60;;;;;;5074762;28;20080;-74
2022/05/01 03:03:01;;;;;;;1.75;0.40;;;27.60;83.00;;;;;;5071133;28;20111;-75
2022/05/01 03:05:28;;;;;;;5.78;0.50;;;27.70;81.70;;;;;;5072363;28;20024;-78
2022/05/01 03:07:56;;;;;;;0.80;0.40;;;27.70;82.40;;;;;;5072103;28;20021;-78
2022/05/01 03:10:24;;;;;;;3.22;0.38;;;27.70;83.30;;;;;;5069993;28;20447;-78
2022/05/01 03:12:51;;;;;;;2.00;0.43;;;27.60;82.20;;;;;;5073091;28;20028;-78
2022/05/01 03:15:18;;;;;;;1.92;0.30;;;27.40;82.30;;;;;;5078532;28;20036;-78
2022/05/01 03:23:17;;;;;;;3.28;1.10;;;26.80;85.70;;;;;;5070917;28;20365;-76
2022/05/01 03:25:44;;;;;;;3.20;0.63;;;26.80;86.50;;;;;;5080030;28;20524;-77
2022/05/01 03:28:11;;;;;;;5.15;0.60;;;26.80;85.90;;;;;;5079289;28;20819;-77
2022/05/01 03:30:39;;;;;;;2.60;1.27;;;26.60;85.20;;;;;;5075446;28;20155;-77
2022/05/01 03:33:07;;;;;;;3.10;0.50;;;26.60;86.90;;;;;;5074625;28;21302;-77
2022/05/01 03:35:35;;;;;;;3.95;0.73;;;26.50;86.80;;;;;;5074880;28;20063;-78
2022/05/01 03:38:06;;;;;;;4.93;0.90;;;26.50;88.30;;;;;;5072582;28;20390;-79
2022/05/01 03:40:36;;;;;;;3.35;0.82;;;26.10;87.50;;;;;;5078985;28;20041;-76
2022/05/01 03:43:05;;;;;;;2.50;0.45;;;25.60;88.60;;;;;;5075560;28;20058;-75
2022/05/01 03:45:32;;;;;;;7.90;1.02;;;25.40;88.60;;;;;;5075252;28;20032;-76
2022/05/01 03:48:00;;;;;;;3.80;0.95;;;25.10;90.20;;;;;;5075522;28;20097;-78
2022/05/01 03:50:28;;;;;;;4.57;0.50;;;24.70;90.20;;;;;;5083303;28;20077;-77
2022/05/01 03:52:55;;;;;;;4.82;0.68;;;24.40;90.00;;;;;;5091018;28;20020;-77
2022/05/01 03:55:23;;;;;;;4.80;0.60;;;24.20;91.50;;;;;;5087627;28;20051;-76
2022/05/01 03:57:50;;;;;;;8.35;1.00;;;24.10;91.80;;;;;;5077941;28;20024;-76
2022/05/01 04:00:20;;;;;;;7.13;0.88;;;24.10;91.30;;;;;;5082833;28;20487;-76
2022/05/01 04:02:47;;;;;;;5.65;1.00;;;24.00;91.80;;;;;;5080047;28;20059;-76
2022/05/01 04:05:15;;;;;;;6.45;1.58;;;24.20;91.80;;;;;;5078420;28;20426;-77
2022/05/01 04:07:44;;;;;;;4.25;0.77;;;24.50;91.50;;;;;;5078101;28;20023;-76
2022/05/01 04:10:12;;;;;;;4.68;1.00;;;24.50;91.40;;;;;;5072597;28;20480;-77
2022/05/01 04:12:41;;;;;;;3.30;0.50;;;24.50;91.30;;;;;;5074877;28;20048;-77
2022/05/01 04:15:11;;;;;;;3.63;0.45;;;24.50;91.60;;;;;;5070830;28;20466;-77
2022/05/01 04:17:40;;;;;;;7.00;0.93;;;24.20;92.30;;;;;;5075816;28;20478;-77
2022/05/01 04:20:13;;;;;;;4.07;0.60;;;23.90;92.10;;;;;;5082192;28;20140;-78
2022/05/01 04:22:46;;;;;;;4.72;1.23;;;23.80;92.50;;;;;;5079100;28;20032;-76
2022/05/01 04:25:21;;;;;;;2.25;0.50;;;23.70;93.00;;;;;;5086029;28;20486;-77
2022/05/01 04:28:02;;;;;;;4.78;0.85;;;23.50;93.10;;;;;;5080645;28;20052;-78
2022/05/01 04:30:33;;;;;;;7.43;1.25;;;23.30;93.00;;;;;;5080692;28;20032;-78
2022/05/01 04:33:04;;;;;;;2.83;0.57;;;23.20;93.70;;;;;;5078003;28;20115;-77
2022/05/01 04:35:37;;;;;;;4.50;1.30;;;23.00;93.70;;;;;;5071874;28;20029;-79
2022/05/01 04:38:08;;;;;;;4.35;0.75;;;22.80;94.20;;;;;;5094965;28;20032;-78
2022/05/01 04:40:43;;;;;;;3.28;0.70;;;22.70;94.10;;;;;;5086500;28;20090;-78
2022/05/01 04:43:11;;;;;;;;;;;22.60;94.30;;;;;;5092954;28;20043;-76
2022/05/01 04:45:40;;;;;;;2.70;0.68;;;22.60;94.70;;;;;;5090727;28;20255;-78
2022/05/01 04:48:09;;;;;;;2.85;0.60;;;22.60;94.90;;;;;;5090981;28;20052;-76
2022/05/01 04:50:37;;;;;;;3.72;0.73;;;22.60;94.90;;;;;;5091066;28;20024;-79
2022/05/01 04:53:12;;;;;;;4.95;0.50;;;22.50;95.60;;;;;;5109905;28;20032;-77
2022/05/01 04:55:41;;;;;;;3.90;0.40;;;22.40;95.30;;;;;;5105278;28;20501;-78
2022/05/01 04:58:09;;;;;;;7.68;0.80;;;22.30;95.30;;;;;;5087380;28;20086;-77
2022/05/01 05:00:37;;;;;;;7.88;0.82;;;22.20;95.90;;;;;;5074059;28;22404;-75
2022/05/01 05:03:05;;;;;;;5.63;1.17;;;22.10;96.00;;;;;;5083029;28;20107;-75
2022/05/01 05:05:34;;;;;;;3.22;0.70;;;22.10;96.20;;;;;;5086049;28;20096;-77
2022/05/01 05:10:49;;;;;;;3.47;0.63;;;22.10;95.70;;;;;;5083019;28;20115;-77
2022/05/01 05:13:22;;;;;;;2.88;1.02;;;22.10;95.60;;;;;;5084618;28;20039;-78
2022/05/01 05:15:50;;;;;;;5.93;1.17;;;22.00;95.80;;;;;;5079668;28;20047;-77
2022/05/01 05:18:18;;;;;;;2.97;1.05;;;21.90;96.10;;;;;;5110981;28;20111;-78
2022/05/01 05:20:45;;;;;;;5.55;0.63;;;21.80;96.60;;;;;;5099377;28;20050;-76
2022/05/01 05:23:13;;;;;;;3.55;0.40;;;21.90;96.30;;;;;;5091757;28;20059;-75
2022/05/01 05:25:40;;;;;;;4.05;0.63;;;21.80;96.30;;;;;;5086022;28;20035;-77
2022/05/01 05:28:08;;;;;;;3.50;0.88;;;21.90;96.60;;;;;;5108851;28;20417;-76
2022/05/01 05:30:36;;;;;;;7.57;3.03;;;21.90;96.60;;;;;;5112343;28;20363;-76
2022/05/01 05:33:06;;;;;;;5.40;0.70;;;22.10;96.10;;;;;;5089203;28;20032;-76
2022/05/01 05:35:33;;;;;;;3.30;0.80;;;22.20;96.40;;;;;;5089133;28;20060;-76
2022/05/01 05:38:01;;;;;;;3.85;0.93;;;22.30;96.30;;;;;;5107366;28;20019;-77
2022/05/01 05:40:28;;;;;;;2.42;0.60;;;22.30;96.20;;;;;;5108256;28;20032;-77
2022/05/01 05:42:55;;;;;;;5.22;0.85;;;22.30;95.80;;;;;;5090526;28;20076;-76
2022/05/01 05:45:23;;;;;;;3.45;1.83;;;22.40;96.10;;;;;;5088226;28;20538;-76
2022/05/01 05:47:50;;;;;;;4.07;0.32;;;22.50;96.00;;;;;;5090615;28;20040;-77
2022/05/01 05:50:18;;;;;;;8.82;1.02;;;22.50;96.10;;;;;;5091009;28;20039;-76
2022/05/01 05:52:45;;;;;;;4.38;0.40;;;22.50;95.60;;;;;;5086722;28;20375;-77
2022/05/01 05:55:12;;;;;;;4.50;1.20;;;22.50;96.10;;;;;;5090959;28;20041;-77
2022/05/01 05:57:40;;;;;;;3.55;0.95;;;22.50;96.30;;;;;;5090541;28;20025;-78
2022/05/01 06:00:07;;;;;;;5.18;0.93;;;22.50;96.30;;;;;;5091172;28;20043;-77
2022/05/01 06:02:35;;;;;;;16.40;7.28;;;22.40;96.10;;;;;;5085330;28;20112;-77
2022/05/01 06:05:02;;;;;;;7.65;1.20;;;22.30;95.90;;;;;;5074146;28;20102;-78
2022/05/01 06:07:29;;;;;;;2.30;0.60;;;22.30;96.20;;;;;;5090130;28;20089;-78
2022/05/01 06:09:57;;;;;;;3.22;1.48;;;22.20;96.30;;;;;;5089122;28;20534;-77
2022/05/01 06:12:24;;;;;;;2.63;0.70;;;22.20;96.60;;;;;;5078572;28;20050;-77
2022/05/01 06:14:51;;;;;;;21.42;7.68;;;22.20;96.60;;;;;;5070982;28;20020;-77
2022/05/01 06:17:19;;;;;;;19.80;7.63;;;22.20;96.70;;;;;;5094985;28;20023;-77
2022/05/01 06:19:47;;;;;;;97.00;39.80;;;22.30;96.50;;;;;;5094428;28;20028;-77
2022/05/01 06:22:14;;;;;;;83.70;35.97;;;22.20;96.60;;;;;;5085062;28;20051;-77
2022/05/01 06:24:42;;;;;;;24.67;10.05;;;22.20;96.30;;;;;;5090870;28;20020;-76
2022/05/01 06:27:09;;;;;;;19.42;5.18;;;22.10;96.50;;;;;;5085220;28;20028;-77
2022/05/01 06:29:36;;;;;;;7.28;1.10;;;22.00;96.80;;;;;;5072416;28;20029;-77
2022/05/01 06:32:04;;;;;;;1.60;0.40;;;21.90;96.80;;;;;;5089860;28;20081;-77
2022/05/01 06:34:32;;;;;;;32.13;12.73;;;21.80;96.90;;;;;;5102933;28;20115;-76
2022/05/01 06:37:00;;;;;;;14.50;4.90;;;21.70;97.30;;;;;;5087880;28;20123;-78
2022/05/01 06:39:28;;;;;;;5.55;1.38;;;21.60;97.50;;;;;;5090539;28;20458;-77
2022/05/01 06:41:56;;;;;;;7.85;2.97;;;21.50;97.40;;;;;;5088116;28;20024;-77
2022/05/01 06:44:23;;;;;;;7.00;2.70;;;21.40;97.70;;;;;;5088631;28;20047;-76
2022/05/01 06:46:50;;;;;;;4.40;2.28;;;21.30;98.00;;;;;;5089171;28;20020;-76
2022/05/01 06:49:18;;;;;;;5.38;2.67;;;21.20;98.20;;;;;;5083911;28;20402;-76
2022/05/01 06:51:45;;;;;;;6.57;0.70;;;21.10;98.50;;;;;;5094237;28;20023;-76
2022/05/01 06:54:12;;;;;;;3.97;1.10;;;21.10;98.30;;;;;;5110533;28;20028;-76
2022/05/01 06:56:41;;;;;;;1.70;0.85;;;21.00;98.40;;;;;;5090376;28;20032;-77
2022/05/01 06:59:09;;;;;;;2.67;0.90;;;20.90;99.10;;;;;;5080496;28;20474;-77
2022/05/01 07:01:36;;;;;;;2.38;1.33;;;20.80;99.40;;;;;;5086346;28;20403;-78
2022/05/01 07:04:03;;;;;;;12.07;2.80;;;20.70;99.80;;;;;;5093002;28;20082;-77
2022/05/01 07:06:31;;;;;;;4.20;1.27;;;20.60;99.90;;;;;;5076231;28;20035;-77
2022/05/01 07:08:58;;;;;;;5.95;1.00;;;20.40;99.90;;;;;;5092244;28;20028;-77
2022/05/01 07:11:25;;;;;;;5.55;1.42;;;20.30;99.90;;;;;;5104209;28;20063;-77
2022/05/01 07:13:53;;;;;;;7.65;1.10;;;20.30;99.90;;;;;;5100395;28;20032;-77
2022/05/01 07:16:22;;;;;;;2.15;0.88;;;20.30;99.90;;;;;;5092901;28;20541;-77
2022/05/01 07:18:49;;;;;;;3.15;1.00;;;20.30;99.90;;;;;;5088726;28;20050;-78
2022/05/01 07:21:17;;;;;;;11.10;3.05;;;20.20;99.90;;;;;;5088115;28;21010;-78
2022/05/01 07:23:45;;;;;;;4.03;1.40;;;20.20;99.90;;;;;;5091413;28;20474;-76
2022/05/01 07:26:12;;;;;;;5.05;1.40;;;20.20;99.90;;;;;;5087078;28;20028;-77
2022/05/01 07:28:40;;;;;;;4.35;0.98;;;20.20;99.90;;;;;;5084436;28;20443;-78
2022/05/01 07:31:07;;;;;;;5.45;1.00;;;20.20;99.90;;;;;;5072044;28;20855;-73
2022/05/01 07:33:34;;;;;;;3.30;0.90;;;20.30;99.90;;;;;;5081364;28;20034;-74
2022/05/01 07:36:02;;;;;;;7.20;2.35;;;20.30;99.90;;;;;;5082383;28;20107;-74
2022/05/01 07:38:29;;;;;;;10.00;2.95;;;20.30;99.90;;;;;;5080627;28;20482;-74
2022/05/01 07:40:57;;;;;;;11.85;4.15;;;20.30;99.90;;;;;;5086768;28;20040;-74
2022/05/01 07:43:25;;;;;;;9.80;3.35;;;20.30;99.90;;;;;;5089134;28;20034;-74
2022/05/01 07:45:52;;;;;;;13.40;3.80;;;20.30;99.90;;;;;;5096428;28;20031;-74
2022/05/01 07:48:20;;;;;;;9.90;3.40;;;20.30;99.90;;;;;;5088372;28;20044;-73
2022/05/01 07:50:47;;;;;;;7.75;2.03;;;20.40;99.90;;;;;;5078445;28;20395;-74
2022/05/01 07:53:16;;;;;;;8.07;1.25;;;20.50;99.90;;;;;;5094894;28;20021;-74
2022/05/01 07:55:44;;;;;;;4.70;1.52;;;20.60;99.90;;;;;;5083618;28;20059;-75
2022/05/01 07:58:11;;;;;;;6.55;2.63;;;20.60;99.90;;;;;;5079474;28;20028;-77
2022/05/01 08:00:38;;;;;;;5.88;2.25;;;20.60;99.90;;;;;;5087575;28;20072;-78
2022/05/01 08:05:51;;;;;;;5.53;1.45;;;20.30;99.90;;;;;;5085628;28;20047;-78
2022/05/01 08:08:18;;;;;;;5.85;1.10;;;20.00;99.90;;;;;;5091738;28;20505;-75
2022/05/01 08:10:46;;;;;;;5.70;1.45;;;19.90;99.90;;;;;;5084433;28;20043;-75
2022/05/01 08:13:13;;;;;;;6.22;1.60;;;19.70;99.90;;;;;;5082830;28;20016;-77
2022/05/01 08:15:40;;;;;;;6.05;2.10;;;19.60;99.90;;;;;;5088703;28;20042;-76
2022/05/01 08:21:32;;;;;;;5.13;2.35;;;19.30;99.90;;;;;;5054114;28;20487;-75
2022/05/01 08:23:52;;;;;;;6.55;2.50;;;19.10;99.90;;;;;;5078749;28;20053;-77
2022/05/01 08:26:21;;;;;;;8.15;3.10;;;19.00;99.90;;;;;;5087093;28;20032;-76
2022/05/01 08:28:51;;;;;;;6.97;2.92;;;19.00;99.90;;;;;;5084427;28;20607;-76
2022/05/01 08:31:18;;;;;;;9.43;4.07;;;18.90;99.90;;;;;;5082252;28;20024;-76
2022/05/01 08:33:46;;;;;;;7.57;3.30;;;18.80;99.90;;;;;;5073237;28;20923;-75
2022/05/01 08:36:13;;;;;;;6.15;2.35;;;18.70;99.90;;;;;;5078071;28;20925;-76
2022/05/01 08:38:42;;;;;;;8.52;2.55;;;18.70;99.90;;;;;;5072168;28;20100;-75
2022/05/01 08:41:10;;;;;;;4.28;1.40;;;18.60;99.90;;;;;;5074539;28;20040;-75
2022/05/01 08:43:37;;;;;;;4.07;1.15;;;18.60;99.90;;;;;;5074979;28;20023;-75
2022/05/01 08:46:29;;;;;;;5.75;1.65;;;18.50;99.90;;;;;;5072514;28;20740;-76
2022/05/01 08:49:05;;;;;;;4.70;1.67;;;18.40;99.90;;;;;;5073074;28;20040;-74
2022/05/01 08:51:40;;;;;;;1.70;1.20;;;18.40;99.90;;;;;;5074485;28;20036;-76
2022/05/01 08:54:12;;;;;;;7.15;1.67;;;18.30;99.90;;;;;;5074383;28;20063;-75
2022/05/01 08:56:43;;;;;;;3.00;1.23;;;18.20;99.90;;;;;;5072849;28;21471;-74
2022/05/01 08:59:14;;;;;;;6.40;1.02;;;18.00;99.90;;;;;;5076600;28;20043;-74
2022/05/01 09:01:46;;;;;;;4.68;1.15;;;18.00;99.90;;;;;;5074521;28;20036;-77
2022/05/01 09:04:14;;;;;;;2.30;1.50;;;17.90;99.90;;;;;;5074359;28;20028;-76
2022/05/01 09:06:43;;;;;;;3.47;0.98;;;17.80;99.90;;;;;;5073457;28;20028;-77
2022/05/01 09:09:22;;;;;;;4.18;1.15;;;17.70;99.90;;;;;;5072341;28;20066;-75
2022/05/01 09:14:36;;;;;;;2.65;1.73;;;17.60;99.90;;;;;;5071623;28;20169;-76
2022/05/01 09:17:24;;;;;;;6.03;2.40;;;17.50;99.90;;;;;;5073201;28;20032;-76
2022/05/01 09:20:04;;;;;;;7.88;3.40;;;17.50;99.90;;;;;;5076663;28;20047;-76
2022/05/01 09:22:50;;;;;;;2.50;1.83;;;17.40;99.90;;;;;;5076864;28;20512;-74
2022/05/01 09:25:19;;;;;;;5.53;1.80;;;17.40;99.90;;;;;;5073493;28;20028;-76
2022/05/01 09:27:49;;;;;;;5.47;1.98;;;17.30;99.90;;;;;;5080699;28;20060;-75
2022/05/01 09:30:20;;;;;;;13.32;2.58;;;17.30;99.90;;;;;;5087910;28;20960;-76
2022/05/01 09:32:48;;;;;;;1.52;1.25;;;17.20;99.90;;;;;;5084251;28;20054;-77
2022/05/01 09:35:35;;;;;;;4.53;2.20;;;17.10;99.90;;;;;;5071328;28;20548;-75
2022/05/01 09:38:25;;;;;;;9.90;1.88;;;17.00;99.90;;;;;;5084703;28;20035;-76
2022/05/01 09:40:58;;;;;;;4.90;1.70;;;17.00;99.90;;;;;;5090658;28;20436;-76
2022/05/01 09:43:47;;;;;;;7.57;2.22;;;16.90;99.90;;;;;;5087997;28;20034;-76
2022/05/01 09:46:25;;;;;;;5.25;2.60;;;16.80;99.90;;;;;;5074178;28;20039;-75
2022/05/01 09:49:03;;;;;;;7.30;2.58;;;16.80;99.90;;;;;;5087170;28;20092;-76
2022/05/01 09:51:33;;;;;;;6.03;2.10;;;16.80;99.90;;;;;;5095495;28;20032;-77
2022/05/01 09:54:08;;;;;;;5.75;2.33;;;16.80;99.90;;;;;;5084236;28;20633;-78
2022/05/01 09:56:51;;;;;;;8.85;2.88;;;16.70;99.90;;;;;;5087856;28;20092;-79
2022/05/01 09:59:21;;;;;;;3.95;1.70;;;16.70;99.90;;;;;;5091845;28;20042;-77
2022/05/01 10:02:02;;;;;;;7.78;2.38;;;16.60;99.90;;;;;;5085609;28;20119;-77
2022/05/01 10:04:32;;;;;;;6.25;2.03;;;16.60;99.90;;;;;;5084391;28;20015;-78
2022/05/01 10:07:00;;;;;;;6.93;2.42;;;16.50;99.90;;;;;;5090444;28;20062;-79
2022/05/01 10:09:32;;;;;;;5.30;1.90;;;16.50;99.90;;;;;;5086337;28;20243;-76
2022/05/01 10:12:04;;;;;;;6.35;1.77;;;16.50;99.90;;;;;;5093234;28;20474;-75
2022/05/01 10:14:32;;;;;;;4.38;1.90;;;16.40;99.90;;;;;;5103859;28;20028;-78
2022/05/01 10:17:01;;;;;;;7.32;2.17;;;16.50;99.90;;;;;;5091396;28;20059;-79
2022/05/01 10:19:29;;;;;;;7.93;2.35;;;16.40;99.90;;;;;;5083265;28;20131;-77
2022/05/01 10:22:00;;;;;;;7.25;2.00;;;16.50;99.90;;;;;;5089420;28;20097;-77
2022/05/01 10:24:28;;;;;;;7.28;1.75;;;16.50;99.90;;;;;;5071826;28;20111;-76
2022/05/01 10:27:18;;;;;;;7.20;2.47;;;16.50;99.90;;;;;;5067380;28;20036;-78
2022/05/01 10:33:20;;;;;;;4.75;3.15;;;16.60;99.90;;;;;;5086844;28;20121;-75
2022/05/01 10:36:31;;;;;;;8.05;2.58;;;16.60;99.90;;;;;;5078031;28;20032;-76
2022/05/01 10:39:16;;;;;;;3.42;2.33;;;16.70;99.90;;;;;;5071968;28;20114;-74
2022/05/01 10:41:46;;;;;;;5.55;2.08;;;16.80;99.90;;;;;;5076757;28;20478;-76
2022/05/01 10:44:31;;;;;;;6.18;2.00;;;16.90;99.90;;;;;;5076453;28;20102;-75
2022/05/01 10:47:17;;;;;;;5.32;2.03;;;16.90;99.90;;;;;;5073757;28;20028;-75
2022/05/01 10:49:47;;;;;;;6.43;2.05;;;17.00;99.90;;;;;;5095143;28;20043;-75
2022/05/01 10:52:19;;;;;;;6.40;2.15;;;17.00;99.90;;;;;;5080982;28;20104;-75
2022/05/01 10:55:05;;;;;;;5.47;1.45;;;17.10;99.90;;;;;;5086107;28;20035;-75
2022/05/01 10:57:33;;;;;;;4.22;1.30;;;17.20;99.90;;;;;;5092844;28;20032;-73
2022/05/01 11:00:05;;;;;;;8.13;2.20;;;17.20;99.90;;;;;;5101187;28;20054;-76
2022/05/01 11:02:41;;;;;;;4.88;1.38;;;17.20;99.90;;;;;;5095329;28;20032;-73
2022/05/01 11:05:11;;;;;;;4.15;1.52;;;17.30;99.90;;;;;;5094580;28;20024;-75
2022/05/01 11:07:40;;;;;;;5.20;2.50;;;17.20;99.90;;;;;;5086105;28;20052;-76
2022/05/01 11:10:10;;;;;;;2.97;1.52;;;17.30;99.90;;;;;;5073899;28;20421;-74
2022/05/01 11:12:38;;;;;;;3.58;1.20;;;17.40;99.90;;;;;;5081272;28;20173;-75
2022/05/01 11:15:10;;;;;;;4.97;1.27;;;17.40;99.90;;;;;;5090509;28;20490;-76
2022/05/01 11:17:39;;;;;;;4.35;1.23;;;17.40;99.90;;;;;;5083545;28;20111;-77
2022/05/01 11:20:14;;;;;;;9.23;1.33;;;17.40;99.90;;;;;;5089732;28;20040;-77
2022/05/01 11:22:45;;;;;;;3.13;0.90;;;17.40;99.90;;;;;;5088863;28;20052;-76
2022/05/01 11:25:18;;;;;;;4.40;1.05;;;17.40;99.90;;;;;;5085012;28;20083;-75
2022/05/01 11:27:56;;;;;;;3.28;1.17;;;17.40;99.90;;;;;;5075656;28;20020;-75
2022/05/01 11:30:31;;;;;;;4.97;1.33;;;17.40;99.90;;;;;;5074717;28;20060;-77
2022/05/01 11:33:12;;;;;;;5.75;0.93;;;17.40;99.90;;;;;;5086417;28;20048;-77
2022/05/01 11:35:55;;;;;;;5.55;1.23;;;17.40;99.90;;;;;;5070712;28;20040;-75
2022/05/01 11:38:31;;;;;;;6.57;1.38;;;17.30;99.90;;;;;;5071797;28;20180;-75
2022/05/01 11:41:01;;;;;;;3.58;1.10;;;17.30;99.90;;;;;;5068647;28;20082;-76
2022/05/01 11:43:35;;;;;;;5.20;1.10;;;17.30;99.90;;;;;;5067481;28;20020;-76
2022/05/01 11:46:04;;;;;;;3.53;1.27;;;17.30;99.90;;;;;;5073349;28;20032;-75
2022/05/01 11:48:32;;;;;;;2.20;1.00;;;17.20;99.90;;;;;;5075119;28;20068;-76
2022/05/01 11:50:59;;;;;;;3.47;1.83;;;17.20;99.90;;;;;;5078039;28;20039;-76
2022/05/01 11:53:33;;;;;;;4.20;1.10;;;17.20;99.90;;;;;;5071538;28;20028;-77
2022/05/01 12:04:35;;;;;;;5.90;2.25;;;17.10;99.90;;;;;;5089940;28;20028;-77
2022/05/01 12:07:21;;;;;;;4.30;2.30;;;17.10;99.90;;;;;;5099527;28;20509;-74
2022/05/01 12:09:51;;;;;;;3.73;1.27;;;17.10;99.90;;;;;;5092103;28;20024;-76
2022/05/01 12:12:20;;;;;;;3.53;1.00;;;17.00;99.90;;;;;;5087891;28;20039;-75
2022/05/01 12:14:49;;;;;;;2.33;1.02;;;17.00;99.90;;;;;;5093720;28;20483;-76
2022/05/01 12:17:18;;;;;;;6.75;1.27;;;17.00;99.90;;;;;;5082793;28;20024;-75
2022/05/01 12:19:47;;;;;;;4.82;1.30;;;16.90;99.90;;;;;;5094682;28;20473;-75
2022/05/01 12:22:16;;;;;;;4.63;1.10;;;16.90;99.90;;;;;;5093262;28;20036;-74
2022/05/01 12:24:46;;;;;;;3.83;0.93;;;16.80;99.90;;;;;;5091926;28;20020;-75
2022/05/01 12:27:16;;;;;;;3.20;1.45;;;16.70;99.90;;;;;;5100442;28;20110;-74
2022/05/01 12:29:53;;;;;;;3.08;1.75;;;16.70;99.90;;;;;;5088965;28;20081;-76
2022/05/01 12:32:20;;;;;;;3.05;1.38;;;16.60;99.90;;;;;;5085126;28;20036;-75
2022/05/01 12:34:48;;;;;;;1.95;1.38;;;16.50;99.90;;;;;;5090552;28;20051;-74
2022/05/01 12:37:17;;;;;;;6.22;1.10;;;16.40;99.90;;;;;;5091365;28;20047;-75
2022/05/01 12:40:03;;;;;;;4.95;1.50;;;16.40;99.90;;;;;;5092825;28;20450;-77
2022/05/01 12:45:37;;;;;;;4.50;1.25;;;16.20;99.90;;;;;;5089251;28;20521;-75
2022/05/01 12:48:07;;;;;;;5.20;1.45;;;16.10;99.90;;;;;;5092742;28;20048;-75
2022/05/01 12:50:37;;;;;;;5.72;1.10;;;16.00;99.90;;;;;;5090168;28;20064;-76
2022/05/01 12:53:29;;;;;;;5.47;2.17;;;15.90;99.90;;;;;;5092822;28;20028;-76
2022/05/01 12:56:02;;;;;;;8.57;1.38;;;15.90;99.90;;;;;;5075874;28;20029;-74
2022/05/01 12:58:32;;;;;;;8.27;1.83;;;15.70;99.90;;;;;;5084859;28;20042;-74
2022/05/01 13:01:01;;;;;;;3.30;1.02;;;15.70;99.90;;;;;;5102301;28;20028;-75
2022/05/01 13:03:29;;;;;;;1.85;1.42;;;15.70;99.90;;;;;;5088790;28;20284;-74
2022/05/01 13:06:14;;;;;;;5.22;1.75;;;15.60;99.90;;;;;;5086495;28;20118;-76
2022/05/01 13:08:49;;;;;;;6.65;2.25;;;15.60;99.90;;;;;;5090953;28;20099;-75
2022/05/01 13:11:18;;;;;;;4.72;1.13;;;15.50;99.90;;;;;;5088451;28;20478;-76
2022/05/01 13:13:48;;;;;;;5.65;1.15;;;15.50;99.90;;;;;;5092624;28;20043;-76
2022/05/01 13:16:17;;;;;;;6.72;1.63;;;15.50;99.90;;;;;;5086356;28;20101;-75
2022/05/01 13:18:45;;;;;;;2.35;0.90;;;15.40;99.90;;;;;;5086701;28;20101;-75
2022/05/01 13:21:13;;;;;;;5.25;1.20;;;15.40;99.90;;;;;;5085593;28;20036;-75
2022/05/01 13:23:42;;;;;;;4.25;1.30;;;15.30;99.90;;;;;;5088145;28;20067;-76
2022/05/01 13:26:10;;;;;;;2.65;1.00;;;15.30;99.90;;;;;;5086975;28;20040;-76
2022/05/01 13:28:37;;;;;;;3.17;1.05;;;15.30;99.90;;;;;;5085791;28;20106;-76
2022/05/01 13:31:04;;;;;;;3.97;1.13;;;15.30;99.90;;;;;;5085665;28;20650;-77
2022/05/01 13:33:32;;;;;;;3.88;1.27;;;15.30;99.90;;;;;;5094584;28;20429;-75
2022/05/01 13:35:59;;;;;;;3.75;1.10;;;15.30;99.90;;;;;;5090071;28;20032;-75
2022/05/01 13:38:26;;;;;;;3.22;1.05;;;15.20;99.90;;;;;;5091826;28;20020;-76
2022/05/01 13:46:24;;;;;;;2.00;0.80;;;15.10;99.90;;;;;;5079498;28;20074;-78
2022/05/01 13:48:52;;;;;;;2.97;0.80;;;15.00;99.90;;;;;;5094615;28;20044;-74